KSOW/SOW METAR and TAF weather

Enter ICAO airport designator
Station Type Date Time Source
KSOW METAR 2024/04/18 07:55 UTC NOAA

KSOW 180755Z AUTO 17007KT 10SM CLR 10/M05 A3017 RMK AO2


Station Type Date Time Source
KSOW Decoded METAR 2024/04/18 07:55 UTC NOAA

Show Low, Show Low Regional Airport, AZ, United States (KSOW) 34-15-55N 110-00-20W
Apr 18, 2024 - 03:55 AM EDT / 2024.04.18 0755 UTC
Wind: from the S (170 degrees) at 8 MPH (7 KT):0
Visibility: 10 mile(s):0
Sky conditions: clear
Temperature: 50 F (10 C)
Dew Point: 23 F (-5 C)
Relative Humidity: 34%
Pressure (altimeter): 30.17 in. Hg (1021 hPa)
ob: KSOW 180755Z AUTO 17007KT 10SM CLR 10/M05 A3017 RMK AO2
cycle: 8

Station Type Date Time Source
KSOW TAF UTC NOAA

Error!

Example: see airport list